Terminal Aerodrome Forecast
Issued by NWS Atlanta, GA

Home | Current Version | Previous Version | Text Only | Print | Product List | Glossary On
Versions: 1 2 3 4 5 6 7 8 9 10 11 12 13 14 15 16
000
FTUS42 KFFC 271125
TAFMCN
TAF
KMCN 271125Z 2712/2812 25004KT P6SM SCT250
     FM271500 25008KT P6SM FEW050 BKN200
     FM271700 25010KT P6SM BKN050
     FM280000 24005KT P6SM SCT050 BKN100
     FM280400 23004KT P6SM SCT100=

USA.gov is the U.S. government's official web portal to all federal, state and local government web resources and services.